sensor_id;sensor_type;location;lat;lon;timestamp;P1;durP1;ratioP1;P2;durP2;ratioP2
23280;SDS011;11809;56.390;-3.266;2022-10-16T00:01:20;0.80;;;0.50;;
23280;SDS011;11809;56.390;-3.266;2022-10-16T00:03:49;1.27;;;0.52;;
23280;SDS011;11809;56.390;-3.266;2022-10-16T00:06:17;0.85;;;0.45;;
23280;SDS011;11809;56.390;-3.266;2022-10-16T00:08:46;0.65;;;0.50;;
23280;SDS011;11809;56.390;-3.266;2022-10-16T00:13:46;0.85;;;0.50;;
23280;SDS011;11809;56.390;-3.266;2022-10-16T00:16:15;0.43;;;0.30;;
23280;SDS011;11809;56.390;-3.266;2022-10-16T00:18:42;0.60;;;0.38;;
23280;SDS011;11809;56.390;-3.266;2022-10-16T00:21:11;1.35;;;0.60;;
23280;SDS011;11809;56.390;-3.266;2022-10-16T00:23:41;2.50;;;0.50;;
23280;SDS011;11809;56.390;-3.266;2022-10-16T00:26:09;1.13;;;0.43;;
23280;SDS011;11809;56.390;-3.266;2022-10-16T00:28:39;1.05;;;0.60;;
23280;SDS011;11809;56.390;-3.266;2022-10-16T00:31:07;0.80;;;0.40;;
23280;SDS011;11809;56.390;-3.266;2022-10-16T00:33:37;0.55;;;0.40;;
23280;SDS011;11809;56.390;-3.266;2022-10-16T00:36:05;0.30;;;0.30;;
23280;SDS011;11809;56.390;-3.266;2022-10-16T00:38:34;0.50;;;0.50;;
23280;SDS011;11809;56.390;-3.266;2022-10-16T00:41:01;1.10;;;0.43;;
23280;SDS011;11809;56.390;-3.266;2022-10-16T00:43:36;1.48;;;0.55;;
23280;SDS011;11809;56.390;-3.266;2022-10-16T00:46:49;1.40;;;0.50;;
23280;SDS011;11809;56.390;-3.266;2022-10-16T00:49:06;1.00;;;0.38;;
23280;SDS011;11809;56.390;-3.266;2022-10-16T00:54:15;0.50;;;0.40;;
23280;SDS011;11809;56.390;-3.266;2022-10-16T00:56:46;0.80;;;0.38;;
23280;SDS011;11809;56.390;-3.266;2022-10-16T00:59:15;0.43;;;0.30;;
23280;SDS011;11809;56.390;-3.266;2022-10-16T01:01:57;0.38;;;0.30;;
23280;SDS011;11809;56.390;-3.266;2022-10-16T01:04:25;0.70;;;0.30;;
23280;SDS011;11809;56.390;-3.266;2022-10-16T01:15:26;0.75;;;0.30;;
23280;SDS011;11809;56.390;-3.266;2022-10-16T01:18:42;0.35;;;0.30;;
23280;SDS011;11809;56.390;-3.266;2022-10-16T01:21:25;0.45;;;0.35;;
23280;SDS011;11809;56.390;-3.266;2022-10-16T01:31:39;0.45;;;0.40;;
23280;SDS011;11809;56.390;-3.266;2022-10-16T01:34:11;0.40;;;0.40;;
23280;SDS011;11809;56.390;-3.266;2022-10-16T01:37:18;0.40;;;0.30;;
23280;SDS011;11809;56.390;-3.266;2022-10-16T01:39:52;0.30;;;0.30;;
23280;SDS011;11809;56.390;-3.266;2022-10-16T01:42:23;0.33;;;0.33;;
23280;SDS011;11809;56.390;-3.266;2022-10-16T01:44:55;1.55;;;0.30;;
23280;SDS011;11809;56.390;-3.266;2022-10-16T01:47:25;0.40;;;0.30;;
23280;SDS011;11809;56.390;-3.266;2022-10-16T01:49:54;0.38;;;0.30;;
23280;SDS011;11809;56.390;-3.266;2022-10-16T01:52:25;0.30;;;0.30;;
23280;SDS011;11809;56.390;-3.266;2022-10-16T01:54:55;0.65;;;0.40;;
23280;SDS011;11809;56.390;-3.266;2022-10-16T01:57:24;0.63;;;0.28;;
23280;SDS011;11809;56.390;-3.266;2022-10-16T01:59:54;1.65;;;0.30;;
23280;SDS011;11809;56.390;-3.266;2022-10-16T02:02:24;0.35;;;0.30;;
23280;SDS011;11809;56.390;-3.266;2022-10-16T02:04:57;0.47;;;0.27;;
23280;SDS011;11809;56.390;-3.266;2022-10-16T02:07:28;0.43;;;0.30;;
23280;SDS011;11809;56.390;-3.266;2022-10-16T02:09:54;0.22;;;0.20;;
23280;SDS011;11809;56.390;-3.266;2022-10-16T02:12:25;0.57;;;0.30;;
23280;SDS011;11809;56.390;-3.266;2022-10-16T02:14:55;0.20;;;0.20;;
23280;SDS011;11809;56.390;-3.266;2022-10-16T02:17:22;0.20;;;0.20;;
23280;SDS011;11809;56.390;-3.266;2022-10-16T02:19:50;0.43;;;0.20;;
23280;SDS011;11809;56.390;-3.266;2022-10-16T02:22:22;0.38;;;0.20;;
23280;SDS011;11809;56.390;-3.266;2022-10-16T02:24:57;0.55;;;0.35;;
23280;SDS011;11809;56.390;-3.266;2022-10-16T02:30:34;0.38;;;0.30;;
23280;SDS011;11809;56.390;-3.266;2022-10-16T02:33:06;0.35;;;0.30;;
23280;SDS011;11809;56.390;-3.266;2022-10-16T02:35:36;0.30;;;0.30;;
23280;SDS011;11809;56.390;-3.266;2022-10-16T02:38:04;0.85;;;0.20;;
23280;SDS011;11809;56.390;-3.266;2022-10-16T02:40:32;0.40;;;0.30;;
23280;SDS011;11809;56.390;-3.266;2022-10-16T02:43:00;0.22;;;0.22;;
23280;SDS011;11809;56.390;-3.266;2022-10-16T02:45:29;0.22;;;0.20;;
23280;SDS011;11809;56.390;-3.266;2022-10-16T02:47:56;0.75;;;0.30;;
23280;SDS011;11809;56.390;-3.266;2022-10-16T02:50:23;0.20;;;0.20;;
23280;SDS011;11809;56.390;-3.266;2022-10-16T02:52:51;0.40;;;0.30;;
23280;SDS011;11809;56.390;-3.266;2022-10-16T02:55:18;0.38;;;0.20;;
23280;SDS011;11809;56.390;-3.266;2022-10-16T02:57:45;0.28;;;0.20;;
23280;SDS011;11809;56.390;-3.266;2022-10-16T03:00:13;0.30;;;0.30;;
23280;SDS011;11809;56.390;-3.266;2022-10-16T03:02:42;0.47;;;0.20;;
23280;SDS011;11809;56.390;-3.266;2022-10-16T03:05:09;0.85;;;0.30;;
23280;SDS011;11809;56.390;-3.266;2022-10-16T03:07:37;0.28;;;0.28;;
23280;SDS011;11809;56.390;-3.266;2022-10-16T03:10:04;1.35;;;0.20;;
23280;SDS011;11809;56.390;-3.266;2022-10-16T03:12:31;0.40;;;0.30;;
23280;SDS011;11809;56.390;-3.266;2022-10-16T03:14:58;0.20;;;0.20;;
23280;SDS011;11809;56.390;-3.266;2022-10-16T03:17:25;0.60;;;0.30;;
23280;SDS011;11809;56.390;-3.266;2022-10-16T03:19:52;0.28;;;0.20;;
23280;SDS011;11809;56.390;-3.266;2022-10-16T03:22:19;0.20;;;0.20;;
23280;SDS011;11809;56.390;-3.266;2022-10-16T03:24:46;0.20;;;0.20;;
23280;SDS011;11809;56.390;-3.266;2022-10-16T03:27:13;0.40;;;0.17;;
23280;SDS011;11809;56.390;-3.266;2022-10-16T03:29:40;0.20;;;0.10;;
23280;SDS011;11809;56.390;-3.266;2022-10-16T03:32:07;0.20;;;0.20;;
23280;SDS011;11809;56.390;-3.266;2022-10-16T03:34:33;0.50;;;0.20;;
23280;SDS011;11809;56.390;-3.266;2022-10-16T03:37:00;0.28;;;0.13;;
23280;SDS011;11809;56.390;-3.266;2022-10-16T03:39:27;0.32;;;0.32;;
23280;SDS011;11809;56.390;-3.266;2022-10-16T03:41:54;0.20;;;0.20;;
23280;SDS011;11809;56.390;-3.266;2022-10-16T03:44:21;0.30;;;0.30;;
23280;SDS011;11809;56.390;-3.266;2022-10-16T03:46:48;0.30;;;0.30;;
23280;SDS011;11809;56.390;-3.266;2022-10-16T03:49:14;0.20;;;0.17;;
23280;SDS011;11809;56.390;-3.266;2022-10-16T03:51:41;0.40;;;0.30;;
23280;SDS011;11809;56.390;-3.266;2022-10-16T03:54:09;0.32;;;0.20;;
23280;SDS011;11809;56.390;-3.266;2022-10-16T03:56:36;0.20;;;0.20;;
23280;SDS011;11809;56.390;-3.266;2022-10-16T03:59:03;0.13;;;0.13;;
23280;SDS011;11809;56.390;-3.266;2022-10-16T04:01:30;0.20;;;0.20;;
23280;SDS011;11809;56.390;-3.266;2022-10-16T04:03:57;0.10;;;0.10;;
23280;SDS011;11809;56.390;-3.266;2022-10-16T04:06:24;0.28;;;0.20;;
23280;SDS011;11809;56.390;-3.266;2022-10-16T04:08:51;0.20;;;0.20;;
23280;SDS011;11809;56.390;-3.266;2022-10-16T04:11:18;0.20;;;0.20;;
23280;SDS011;11809;56.390;-3.266;2022-10-16T04:13:45;0.38;;;0.25;;
23280;SDS011;11809;56.390;-3.266;2022-10-16T04:16:12;0.10;;;0.10;;
23280;SDS011;11809;56.390;-3.266;2022-10-16T04:18:38;0.52;;;0.15;;
23280;SDS011;11809;56.390;-3.266;2022-10-16T04:21:06;0.20;;;0.20;;
23280;SDS011;11809;56.390;-3.266;2022-10-16T04:23:33;0.10;;;0.10;;
23280;SDS011;11809;56.390;-3.266;2022-10-16T04:26:00;0.50;;;0.20;;
23280;SDS011;11809;56.390;-3.266;2022-10-16T04:28:27;0.20;;;0.17;;
23280;SDS011;11809;56.390;-3.266;2022-10-16T04:30:54;1.08;;;0.10;;
23280;SDS011;11809;56.390;-3.266;2022-10-16T04:33:21;0.10;;;0.10;;
23280;SDS011;11809;56.390;-3.266;2022-10-16T04:35:48;0.20;;;0.20;;
23280;SDS011;11809;56.390;-3.266;2022-10-16T04:38:22;0.40;;;0.20;;
23280;SDS011;11809;56.390;-3.266;2022-10-16T04:40:49;0.17;;;0.17;;
23280;SDS011;11809;56.390;-3.266;2022-10-16T04:43:15;0.13;;;0.13;;
23280;SDS011;11809;56.390;-3.266;2022-10-16T04:45:42;0.43;;;0.20;;
23280;SDS011;11809;56.390;-3.266;2022-10-16T04:48:10;0.10;;;0.10;;
23280;SDS011;11809;56.390;-3.266;2022-10-16T04:50:37;0.30;;;0.13;;
23280;SDS011;11809;56.390;-3.266;2022-10-16T04:53:04;0.10;;;0.10;;
23280;SDS011;11809;56.390;-3.266;2022-10-16T04:55:31;0.20;;;0.10;;
23280;SDS011;11809;56.390;-3.266;2022-10-16T04:57:59;0.10;;;0.10;;
23280;SDS011;11809;56.390;-3.266;2022-10-16T05:00:26;0.10;;;0.10;;
23280;SDS011;11809;56.390;-3.266;2022-10-16T05:02:53;0.10;;;0.10;;
23280;SDS011;11809;56.390;-3.266;2022-10-16T05:05:20;0.10;;;0.10;;
23280;SDS011;11809;56.390;-3.266;2022-10-16T05:07:47;0.70;;;0.20;;
23280;SDS011;11809;56.390;-3.266;2022-10-16T05:10:16;0.10;;;0.10;;
23280;SDS011;11809;56.390;-3.266;2022-10-16T05:12:43;0.17;;;0.17;;
23280;SDS011;11809;56.390;-3.266;2022-10-16T05:15:10;0.20;;;0.20;;
23280;SDS011;11809;56.390;-3.266;2022-10-16T05:17:37;0.13;;;0.13;;
23280;SDS011;11809;56.390;-3.266;2022-10-16T05:20:09;0.45;;;0.20;;
23280;SDS011;11809;56.390;-3.266;2022-10-16T05:22:37;0.20;;;0.10;;
23280;SDS011;11809;56.390;-3.266;2022-10-16T05:25:04;0.10;;;0.10;;
23280;SDS011;11809;56.390;-3.266;2022-10-16T05:27:31;0.20;;;0.10;;
23280;SDS011;11809;56.390;-3.266;2022-10-16T05:29:58;0.10;;;0.10;;
23280;SDS011;11809;56.390;-3.266;2022-10-16T05:32:25;0.20;;;0.10;;
23280;SDS011;11809;56.390;-3.266;2022-10-16T05:34:52;0.35;;;0.10;;
23280;SDS011;11809;56.390;-3.266;2022-10-16T05:37:19;1.30;;;0.20;;
23280;SDS011;11809;56.390;-3.266;2022-10-16T05:39:46;0.17;;;0.10;;
23280;SDS011;11809;56.390;-3.266;2022-10-16T05:42:12;0.85;;;0.20;;
23280;SDS011;11809;56.390;-3.266;2022-10-16T05:44:39;0.60;;;0.30;;
23280;SDS011;11809;56.390;-3.266;2022-10-16T05:47:06;0.10;;;0.10;;
23280;SDS011;11809;56.390;-3.266;2022-10-16T05:49:33;1.65;;;0.30;;
23280;SDS011;11809;56.390;-3.266;2022-10-16T05:52:05;1.50;;;0.10;;
23280;SDS011;11809;56.390;-3.266;2022-10-16T05:54:32;0.45;;;0.13;;
23280;SDS011;11809;56.390;-3.266;2022-10-16T05:56:59;1.55;;;0.20;;
23280;SDS011;11809;56.390;-3.266;2022-10-16T05:59:26;0.55;;;0.10;;
23280;SDS011;11809;56.390;-3.266;2022-10-16T06:01:53;0.38;;;0.17;;
23280;SDS011;11809;56.390;-3.266;2022-10-16T06:04:20;1.60;;;0.10;;
23280;SDS011;11809;56.390;-3.266;2022-10-16T06:06:46;0.25;;;0.20;;
23280;SDS011;11809;56.390;-3.266;2022-10-16T06:09:13;0.95;;;0.20;;
23280;SDS011;11809;56.390;-3.266;2022-10-16T06:11:40;1.85;;;0.25;;
23280;SDS011;11809;56.390;-3.266;2022-10-16T06:14:08;0.20;;;0.20;;
23280;SDS011;11809;56.390;-3.266;2022-10-16T06:16:35;0.40;;;0.25;;
23280;SDS011;11809;56.390;-3.266;2022-10-16T06:19:03;2.03;;;0.20;;
23280;SDS011;11809;56.390;-3.266;2022-10-16T06:21:32;2.47;;;0.30;;
23280;SDS011;11809;56.390;-3.266;2022-10-16T06:23:59;1.35;;;0.40;;
23280;SDS011;11809;56.390;-3.266;2022-10-16T06:26:28;18.00;;;0.90;;
23280;SDS011;11809;56.390;-3.266;2022-10-16T06:28:57;25.35;;;1.30;;
23280;SDS011;11809;56.390;-3.266;2022-10-16T06:31:25;11.38;;;1.25;;
23280;SDS011;11809;56.390;-3.266;2022-10-16T06:33:55;13.77;;;1.00;;
23280;SDS011;11809;56.390;-3.266;2022-10-16T06:36:23;12.65;;;0.90;;
23280;SDS011;11809;56.390;-3.266;2022-10-16T06:38:51;10.30;;;0.77;;
23280;SDS011;11809;56.390;-3.266;2022-10-16T06:41:19;7.50;;;0.70;;
23280;SDS011;11809;56.390;-3.266;2022-10-16T06:43:48;8.30;;;0.68;;
23280;SDS011;11809;56.390;-3.266;2022-10-16T06:46:16;6.32;;;0.63;;
23280;SDS011;11809;56.390;-3.266;2022-10-16T06:48:44;5.88;;;0.80;;
23280;SDS011;11809;56.390;-3.266;2022-10-16T06:51:14;1.80;;;0.40;;
23280;SDS011;11809;56.390;-3.266;2022-10-16T06:53:44;5.32;;;0.98;;
23280;SDS011;11809;56.390;-3.266;2022-10-16T06:56:28;3.40;;;0.90;;
23280;SDS011;11809;56.390;-3.266;2022-10-16T06:58:59;6.15;;;1.10;;
23280;SDS011;11809;56.390;-3.266;2022-10-16T07:01:26;4.93;;;1.30;;
23280;SDS011;11809;56.390;-3.266;2022-10-16T07:03:54;3.33;;;1.27;;
23280;SDS011;11809;56.390;-3.266;2022-10-16T07:06:22;2.58;;;1.20;;
23280;SDS011;11809;56.390;-3.266;2022-10-16T07:08:50;2.92;;;0.70;;
23280;SDS011;11809;56.390;-3.266;2022-10-16T07:11:19;2.88;;;1.10;;
23280;SDS011;11809;56.390;-3.266;2022-10-16T07:13:48;7.47;;;2.65;;
23280;SDS011;11809;56.390;-3.266;2022-10-16T07:16:21;8.18;;;3.92;;
23280;SDS011;11809;56.390;-3.266;2022-10-16T07:18:53;7.43;;;4.85;;
23280;SDS011;11809;56.390;-3.266;2022-10-16T07:21:27;11.77;;;6.40;;
23280;SDS011;11809;56.390;-3.266;2022-10-16T07:23:57;9.32;;;5.43;;
23280;SDS011;11809;56.390;-3.266;2022-10-16T07:26:26;14.10;;;7.60;;
23280;SDS011;11809;56.390;-3.266;2022-10-16T07:28:54;16.52;;;8.60;;
23280;SDS011;11809;56.390;-3.266;2022-10-16T07:31:21;13.80;;;6.43;;
23280;SDS011;11809;56.390;-3.266;2022-10-16T07:33:49;9.95;;;6.10;;
23280;SDS011;11809;56.390;-3.266;2022-10-16T07:36:17;9.13;;;5.88;;
23280;SDS011;11809;56.390;-3.266;2022-10-16T07:38:46;8.55;;;5.63;;
23280;SDS011;11809;56.390;-3.266;2022-10-16T07:41:14;6.50;;;4.85;;
23280;SDS011;11809;56.390;-3.266;2022-10-16T07:43:47;7.93;;;3.95;;
23280;SDS011;11809;56.390;-3.266;2022-10-16T07:46:15;6.60;;;4.15;;
23280;SDS011;11809;56.390;-3.266;2022-10-16T07:48:43;4.32;;;3.50;;
23280;SDS011;11809;56.390;-3.266;2022-10-16T07:51:14;4.53;;;3.22;;
23280;SDS011;11809;56.390;-3.266;2022-10-16T07:53:43;5.78;;;3.28;;
23280;SDS011;11809;56.390;-3.266;2022-10-16T07:56:10;6.00;;;3.13;;
23280;SDS011;11809;56.390;-3.266;2022-10-16T07:58:38;4.60;;;2.08;;
23280;SDS011;11809;56.390;-3.266;2022-10-16T08:01:06;2.67;;;1.13;;
23280;SDS011;11809;56.390;-3.266;2022-10-16T08:03:34;2.67;;;0.95;;
23280;SDS011;11809;56.390;-3.266;2022-10-16T08:06:02;2.50;;;1.20;;
23280;SDS011;11809;56.390;-3.266;2022-10-16T08:08:30;2.28;;;1.30;;
23280;SDS011;11809;56.390;-3.266;2022-10-16T08:10:57;1.52;;;1.02;;
23280;SDS011;11809;56.390;-3.266;2022-10-16T08:13:24;4.25;;;1.08;;
23280;SDS011;11809;56.390;-3.266;2022-10-16T08:15:53;2.53;;;1.20;;
23280;SDS011;11809;56.390;-3.266;2022-10-16T08:18:20;8.57;;;1.23;;
23280;SDS011;11809;56.390;-3.266;2022-10-16T08:20:54;6.97;;;1.20;;
23280;SDS011;11809;56.390;-3.266;2022-10-16T08:23:22;3.95;;;1.23;;
23280;SDS011;11809;56.390;-3.266;2022-10-16T08:25:49;3.13;;;1.10;;
23280;SDS011;11809;56.390;-3.266;2022-10-16T08:28:16;1.75;;;0.70;;
23280;SDS011;11809;56.390;-3.266;2022-10-16T08:30:43;2.58;;;0.93;;
23280;SDS011;11809;56.390;-3.266;2022-10-16T08:33:10;2.47;;;0.80;;
23280;SDS011;11809;56.390;-3.266;2022-10-16T08:35:37;3.50;;;1.08;;
23280;SDS011;11809;56.390;-3.266;2022-10-16T08:38:04;4.25;;;1.20;;
23280;SDS011;11809;56.390;-3.266;2022-10-16T08:40:32;7.82;;;1.10;;
23280;SDS011;11809;56.390;-3.266;2022-10-16T08:50:58;3.03;;;0.85;;
23280;SDS011;11809;56.390;-3.266;2022-10-16T08:53:33;2.28;;;0.70;;
23280;SDS011;11809;56.390;-3.266;2022-10-16T08:56:07;2.97;;;0.70;;
23280;SDS011;11809;56.390;-3.266;2022-10-16T08:58:34;2.50;;;0.70;;
23280;SDS011;11809;56.390;-3.266;2022-10-16T09:01:03;2.13;;;0.60;;
23280;SDS011;11809;56.390;-3.266;2022-10-16T09:03:44;4.97;;;0.80;;
23280;SDS011;11809;56.390;-3.266;2022-10-16T09:23:39;1.33;;;0.50;;
23280;SDS011;11809;56.390;-3.266;2022-10-16T09:26:09;0.75;;;0.50;;
23280;SDS011;11809;56.390;-3.266;2022-10-16T09:28:39;2.45;;;0.50;;
23280;SDS011;11809;56.390;-3.266;2022-10-16T09:31:24;3.55;;;0.60;;
23280;SDS011;11809;56.390;-3.266;2022-10-16T09:33:55;5.32;;;0.52;;
23280;SDS011;11809;56.390;-3.266;2022-10-16T09:36:27;6.07;;;0.75;;
23280;SDS011;11809;56.390;-3.266;2022-10-16T09:39:02;3.95;;;0.70;;
23280;SDS011;11809;56.390;-3.266;2022-10-16T09:41:33;1.08;;;0.57;;
23280;SDS011;11809;56.390;-3.266;2022-10-16T09:44:02;1.60;;;0.52;;
23280;SDS011;11809;56.390;-3.266;2022-10-16T09:46:36;1.83;;;0.70;;
23280;SDS011;11809;56.390;-3.266;2022-10-16T09:49:05;3.35;;;0.75;;
23280;SDS011;11809;56.390;-3.266;2022-10-16T09:51:51;1.65;;;0.50;;
23280;SDS011;11809;56.390;-3.266;2022-10-16T09:54:33;2.72;;;0.88;;
23280;SDS011;11809;56.390;-3.266;2022-10-16T09:57:06;2.92;;;0.50;;
23280;SDS011;11809;56.390;-3.266;2022-10-16T09:59:34;5.13;;;1.00;;
23280;SDS011;11809;56.390;-3.266;2022-10-16T10:02:01;3.83;;;0.95;;
23280;SDS011;11809;56.390;-3.266;2022-10-16T10:04:38;2.50;;;0.80;;
23280;SDS011;11809;56.390;-3.266;2022-10-16T10:07:38;5.40;;;0.98;;
23280;SDS011;11809;56.390;-3.266;2022-10-16T10:10:22;5.10;;;0.68;;
23280;SDS011;11809;56.390;-3.266;2022-10-16T10:12:51;2.42;;;0.93;;
23280;SDS011;11809;56.390;-3.266;2022-10-16T10:15:19;2.13;;;0.52;;
23280;SDS011;11809;56.390;-3.266;2022-10-16T10:17:52;5.40;;;0.60;;
23280;SDS011;11809;56.390;-3.266;2022-10-16T10:20:39;3.80;;;1.00;;
23280;SDS011;11809;56.390;-3.266;2022-10-16T10:23:22;4.15;;;0.75;;
23280;SDS011;11809;56.390;-3.266;2022-10-16T10:26:06;1.88;;;0.45;;
23280;SDS011;11809;56.390;-3.266;2022-10-16T10:36:48;5.30;;;0.90;;
23280;SDS011;11809;56.390;-3.266;2022-10-16T10:39:25;3.55;;;0.90;;
23280;SDS011;11809;56.390;-3.266;2022-10-16T10:47:57;1.60;;;0.70;;
23280;SDS011;11809;56.390;-3.266;2022-10-16T11:07:27;2.58;;;0.52;;
23280;SDS011;11809;56.390;-3.266;2022-10-16T11:09:58;2.58;;;0.88;;
23280;SDS011;11809;56.390;-3.266;2022-10-16T11:12:34;2.92;;;0.63;;
23280;SDS011;11809;56.390;-3.266;2022-10-16T11:15:11;1.55;;;0.55;;
23280;SDS011;11809;56.390;-3.266;2022-10-16T11:17:49;2.78;;;0.77;;
23280;SDS011;11809;56.390;-3.266;2022-10-16T11:20:22;3.83;;;0.60;;
23280;SDS011;11809;56.390;-3.266;2022-10-16T11:23:08;1.95;;;0.60;;
23280;SDS011;11809;56.390;-3.266;2022-10-16T11:25:42;1.65;;;0.60;;
23280;SDS011;11809;56.390;-3.266;2022-10-16T11:28:19;2.67;;;0.57;;
23280;SDS011;11809;56.390;-3.266;2022-10-16T11:30:58;5.00;;;0.88;;
23280;SDS011;11809;56.390;-3.266;2022-10-16T11:33:37;3.90;;;0.65;;
23280;SDS011;11809;56.390;-3.266;2022-10-16T11:44:04;2.80;;;0.90;;
23280;SDS011;11809;56.390;-3.266;2022-10-16T11:46:33;1.77;;;0.40;;
23280;SDS011;11809;56.390;-3.266;2022-10-16T11:49:25;3.70;;;0.57;;
23280;SDS011;11809;56.390;-3.266;2022-10-16T11:57:33;7.28;;;1.10;;
23280;SDS011;11809;56.390;-3.266;2022-10-16T12:05:58;2.22;;;0.47;;
23280;SDS011;11809;56.390;-3.266;2022-10-16T12:08:46;4.13;;;0.60;;
23280;SDS011;11809;56.390;-3.266;2022-10-16T12:16:32;3.22;;;0.57;;
23280;SDS011;11809;56.390;-3.266;2022-10-16T12:19:09;3.35;;;0.60;;
23280;SDS011;11809;56.390;-3.266;2022-10-16T12:21:42;4.07;;;0.85;;
23280;SDS011;11809;56.390;-3.266;2022-10-16T12:27:05;3.10;;;0.82;;
23280;SDS011;11809;56.390;-3.266;2022-10-16T12:29:40;4.07;;;0.82;;
23280;SDS011;11809;56.390;-3.266;2022-10-16T12:35:23;6.05;;;1.10;;
23280;SDS011;11809;56.390;-3.266;2022-10-16T12:37:54;4.75;;;1.00;;
23280;SDS011;11809;56.390;-3.266;2022-10-16T12:40:32;6.75;;;1.10;;
23280;SDS011;11809;56.390;-3.266;2022-10-16T12:45:59;3.45;;;0.80;;
23280;SDS011;11809;56.390;-3.266;2022-10-16T12:48:46;4.72;;;1.10;;
23280;SDS011;11809;56.390;-3.266;2022-10-16T12:59:28;5.15;;;0.90;;
23280;SDS011;11809;56.390;-3.266;2022-10-16T13:02:44;6.90;;;1.58;;
23280;SDS011;11809;56.390;-3.266;2022-10-16T13:11:00;3.15;;;1.08;;
23280;SDS011;11809;56.390;-3.266;2022-10-16T13:16:55;5.90;;;1.08;;
23280;SDS011;11809;56.390;-3.266;2022-10-16T13:19:45;11.70;;;1.83;;
23280;SDS011;11809;56.390;-3.266;2022-10-16T13:28:13;6.07;;;1.02;;
23280;SDS011;11809;56.390;-3.266;2022-10-16T13:30:50;10.25;;;1.48;;
23280;SDS011;11809;56.390;-3.266;2022-10-16T13:33:20;13.43;;;1.38;;
23280;SDS011;11809;56.390;-3.266;2022-10-16T13:35:58;10.77;;;1.00;;
23280;SDS011;11809;56.390;-3.266;2022-10-16T13:38:27;6.00;;;0.88;;
23280;SDS011;11809;56.390;-3.266;2022-10-16T13:41:12;8.13;;;0.90;;
23280;SDS011;11809;56.390;-3.266;2022-10-16T13:43:46;12.05;;;1.75;;
23280;SDS011;11809;56.390;-3.266;2022-10-16T13:46:18;5.10;;;0.95;;
23280;SDS011;11809;56.390;-3.266;2022-10-16T13:48:56;6.25;;;1.00;;
23280;SDS011;11809;56.390;-3.266;2022-10-16T13:51:25;5.80;;;1.10;;
23280;SDS011;11809;56.390;-3.266;2022-10-16T13:53:54;5.40;;;0.98;;
23280;SDS011;11809;56.390;-3.266;2022-10-16T13:56:22;7.72;;;1.30;;
23280;SDS011;11809;56.390;-3.266;2022-10-16T14:01:28;4.70;;;1.13;;
23280;SDS011;11809;56.390;-3.266;2022-10-16T14:04:01;3.53;;;1.00;;
23280;SDS011;11809;56.390;-3.266;2022-10-16T14:06:31;3.20;;;1.30;;
23280;SDS011;11809;56.390;-3.266;2022-10-16T14:11:26;3.00;;;0.85;;
23280;SDS011;11809;56.390;-3.266;2022-10-16T14:13:53;4.15;;;1.38;;
23280;SDS011;11809;56.390;-3.266;2022-10-16T14:16:22;4.72;;;0.85;;
23280;SDS011;11809;56.390;-3.266;2022-10-16T14:21:32;5.20;;;0.80;;
23280;SDS011;11809;56.390;-3.266;2022-10-16T14:24:10;6.35;;;1.15;;
23280;SDS011;11809;56.390;-3.266;2022-10-16T14:26:41;5.00;;;1.02;;
23280;SDS011;11809;56.390;-3.266;2022-10-16T14:29:19;1.23;;;0.70;;
23280;SDS011;11809;56.390;-3.266;2022-10-16T14:31:56;1.50;;;0.70;;
23280;SDS011;11809;56.390;-3.266;2022-10-16T14:36:54;4.68;;;0.93;;
23280;SDS011;11809;56.390;-3.266;2022-10-16T14:39:22;6.30;;;0.88;;
23280;SDS011;11809;56.390;-3.266;2022-10-16T14:41:52;1.95;;;1.10;;
23280;SDS011;11809;56.390;-3.266;2022-10-16T14:44:27;7.00;;;0.90;;
23280;SDS011;11809;56.390;-3.266;2022-10-16T14:46:57;3.67;;;0.77;;
23280;SDS011;11809;56.390;-3.266;2022-10-16T14:49:32;3.55;;;0.93;;
23280;SDS011;11809;56.390;-3.266;2022-10-16T14:51:59;4.10;;;0.98;;
23280;SDS011;11809;56.390;-3.266;2022-10-16T14:54:27;3.20;;;0.90;;
23280;SDS011;11809;56.390;-3.266;2022-10-16T14:56:55;7.57;;;1.20;;
23280;SDS011;11809;56.390;-3.266;2022-10-16T14:59:30;6.68;;;0.85;;
23280;SDS011;11809;56.390;-3.266;2022-10-16T15:02:51;3.90;;;0.77;;
23280;SDS011;11809;56.390;-3.266;2022-10-16T15:04:57;7.57;;;1.17;;
23280;SDS011;11809;56.390;-3.266;2022-10-16T15:07:39;18.58;;;1.40;;
23280;SDS011;11809;56.390;-3.266;2022-10-16T15:10:06;11.45;;;1.55;;
23280;SDS011;11809;56.390;-3.266;2022-10-16T15:12:34;4.78;;;1.35;;
23280;SDS011;11809;56.390;-3.266;2022-10-16T15:15:01;9.20;;;1.90;;
23280;SDS011;11809;56.390;-3.266;2022-10-16T15:17:28;7.93;;;1.60;;
23280;SDS011;11809;56.390;-3.266;2022-10-16T15:19:55;13.95;;;1.63;;
23280;SDS011;11809;56.390;-3.266;2022-10-16T15:22:25;7.68;;;1.75;;
23280;SDS011;11809;56.390;-3.266;2022-10-16T15:24:52;7.88;;;1.70;;
23280;SDS011;11809;56.390;-3.266;2022-10-16T15:27:19;4.85;;;1.40;;
23280;SDS011;11809;56.390;-3.266;2022-10-16T15:29:46;7.80;;;1.02;;
23280;SDS011;11809;56.390;-3.266;2022-10-16T15:32:13;6.32;;;1.08;;
23280;SDS011;11809;56.390;-3.266;2022-10-16T15:34:40;3.08;;;1.00;;
23280;SDS011;11809;56.390;-3.266;2022-10-16T15:37:08;2.90;;;0.77;;
23280;SDS011;11809;56.390;-3.266;2022-10-16T15:39:35;4.05;;;1.00;;
23280;SDS011;11809;56.390;-3.266;2022-10-16T15:42:06;2.80;;;0.75;;
23280;SDS011;11809;56.390;-3.266;2022-10-16T15:44:34;3.20;;;0.80;;
23280;SDS011;11809;56.390;-3.266;2022-10-16T15:47:01;4.00;;;1.10;;
23280;SDS011;11809;56.390;-3.266;2022-10-16T15:49:28;4.25;;;1.20;;
23280;SDS011;11809;56.390;-3.266;2022-10-16T15:51:55;5.10;;;1.00;;
23280;SDS011;11809;56.390;-3.266;2022-10-16T15:54:22;3.47;;;1.10;;
23280;SDS011;11809;56.390;-3.266;2022-10-16T15:56:50;3.30;;;0.73;;
23280;SDS011;11809;56.390;-3.266;2022-10-16T15:59:16;7.47;;;1.40;;
23280;SDS011;11809;56.390;-3.266;2022-10-16T16:01:45;5.22;;;0.95;;
23280;SDS011;11809;56.390;-3.266;2022-10-16T16:04:12;2.22;;;0.88;;
23280;SDS011;11809;56.390;-3.266;2022-10-16T16:06:59;5.28;;;0.73;;
23280;SDS011;11809;56.390;-3.266;2022-10-16T16:09:30;8.23;;;1.25;;
23280;SDS011;11809;56.390;-3.266;2022-10-16T16:11:57;3.97;;;0.80;;
23280;SDS011;11809;56.390;-3.266;2022-10-16T16:14:27;7.00;;;1.17;;
23280;SDS011;11809;56.390;-3.266;2022-10-16T16:16:55;6.95;;;1.02;;
23280;SDS011;11809;56.390;-3.266;2022-10-16T16:19:23;5.93;;;1.00;;
23280;SDS011;11809;56.390;-3.266;2022-10-16T16:21:50;4.82;;;1.10;;
23280;SDS011;11809;56.390;-3.266;2022-10-16T16:24:17;6.28;;;1.02;;
23280;SDS011;11809;56.390;-3.266;2022-10-16T16:26:44;6.57;;;0.90;;
23280;SDS011;11809;56.390;-3.266;2022-10-16T16:29:12;2.15;;;0.80;;
23280;SDS011;11809;56.390;-3.266;2022-10-16T16:31:41;4.18;;;0.95;;
23280;SDS011;11809;56.390;-3.266;2022-10-16T16:34:08;6.80;;;0.82;;
23280;SDS011;11809;56.390;-3.266;2022-10-16T16:36:36;2.35;;;0.90;;
23280;SDS011;11809;56.390;-3.266;2022-10-16T16:39:03;3.35;;;1.13;;
23280;SDS011;11809;56.390;-3.266;2022-10-16T16:41:30;3.10;;;0.77;;
23280;SDS011;11809;56.390;-3.266;2022-10-16T16:44:01;5.03;;;1.25;;
23280;SDS011;11809;56.390;-3.266;2022-10-16T16:46:31;2.70;;;0.80;;
23280;SDS011;11809;56.390;-3.266;2022-10-16T16:48:59;1.55;;;0.70;;
23280;SDS011;11809;56.390;-3.266;2022-10-16T16:51:26;13.25;;;1.08;;
23280;SDS011;11809;56.390;-3.266;2022-10-16T16:53:54;7.20;;;0.95;;
23280;SDS011;11809;56.390;-3.266;2022-10-16T16:56:21;4.50;;;0.85;;
23280;SDS011;11809;56.390;-3.266;2022-10-16T16:58:50;3.05;;;0.80;;
23280;SDS011;11809;56.390;-3.266;2022-10-16T17:01:19;1.80;;;0.63;;
23280;SDS011;11809;56.390;-3.266;2022-10-16T17:03:48;6.18;;;0.57;;
23280;SDS011;11809;56.390;-3.266;2022-10-16T17:06:24;2.38;;;0.70;;
23280;SDS011;11809;56.390;-3.266;2022-10-16T17:08:53;1.20;;;0.60;;
23280;SDS011;11809;56.390;-3.266;2022-10-16T17:11:21;3.55;;;0.68;;
23280;SDS011;11809;56.390;-3.266;2022-10-16T17:13:50;8.88;;;1.30;;
23280;SDS011;11809;56.390;-3.266;2022-10-16T17:16:40;3.78;;;0.90;;
23280;SDS011;11809;56.390;-3.266;2022-10-16T17:19:12;5.90;;;1.02;;
23280;SDS011;11809;56.390;-3.266;2022-10-16T17:21:41;4.88;;;0.77;;